createdAt,value
2019-05-12T00:00:13.514Z,59242.06
2019-05-12T00:05:09.660Z,59181.48
2019-05-12T00:10:08.529Z,59177.75
2019-05-12T00:15:04.668Z,59140.36
2019-05-12T00:20:00.687Z,59154.80
2019-05-12T00:24:58.379Z,59189.12
2019-05-12T00:29:54.393Z,59160.31
2019-05-12T00:34:50.308Z,59121.77
2019-05-12T00:39:48.292Z,59138.66
2019-05-12T00:44:44.316Z,59142.61
2019-05-12T00:49:40.244Z,59119.89
2019-05-12T00:54:37.575Z,59078.64
2019-05-12T00:59:33.659Z,59125.05
2019-05-12T01:04:29.576Z,59117.16
2019-05-12T01:09:28.190Z,59128.87
2019-05-12T01:14:24.415Z,59147.14
2019-05-12T01:19:20.337Z,59109.74
2019-05-12T01:24:18.525Z,59057.09
2019-05-12T01:29:14.129Z,59083.43
2019-05-12T01:34:10.074Z,59135.70
2019-05-12T01:39:08.432Z,59089.77
2019-05-12T01:44:04.618Z,59113.00
2019-05-12T01:49:00.593Z,59110.43
2019-05-12T01:54:08.620Z,59091.41
2019-05-12T01:58:54.335Z,59131.45
2019-05-12T02:03:50.257Z,59081.91
2019-05-12T02:08:48.179Z,59093.54
2019-05-12T02:13:44.107Z,59093.54
2019-05-12T02:18:40.020Z,59135.57
2019-05-12T02:23:38.577Z,59117.92
2019-05-12T02:28:33.811Z,59128.36
2019-05-12T02:33:29.724Z,59076.72
2019-05-12T02:38:25.668Z,59118.18
2019-05-12T02:43:24.481Z,59089.31
2019-05-12T02:48:19.436Z,59142.73
2019-05-12T02:53:15.366Z,59149.61
2019-05-12T02:58:15.182Z,59121.77
2019-05-12T03:03:14.437Z,59154.87
2019-05-12T03:08:14.998Z,59129.85
2019-05-12T03:13:10.038Z,59107.40
2019-05-12T03:18:06.903Z,59114.80
2019-05-12T03:23:05.869Z,59082.04
2019-05-12T03:28:01.171Z,59137.74
2019-05-12T03:32:58.565Z,59117.77
2019-05-12T03:37:54.913Z,59134.22
2019-05-12T03:42:50.885Z,59135.17
2019-05-12T03:47:46.799Z,59142.25
2019-05-12T03:52:44.946Z,59162.66
2019-05-12T03:57:40.527Z,59122.00
2019-05-12T04:02:36.593Z,59108.34
2019-05-12T04:07:34.574Z,59094.82
2019-05-12T04:12:30.457Z,59124.51
2019-05-12T04:17:26.376Z,59091.63
2019-05-12T04:22:24.927Z,59066.74
2019-05-12T04:27:20.117Z,59078.46
2019-05-12T04:32:16.042Z,59047.36
2019-05-12T04:37:14.582Z,59071.50
2019-05-12T04:42:09.811Z,59049.31
2019-05-12T04:47:05.881Z,59051.07
2019-05-12T04:52:04.996Z,59061.72
2019-05-12T04:56:59.744Z,59025.35
2019-05-12T05:01:55.746Z,58996.94
2019-05-12T05:06:51.659Z,59011.12
2019-05-12T05:11:47.598Z,59016.88
2019-05-12T05:16:45.154Z,59016.88
2019-05-12T05:21:43.646Z,59026.98
2019-05-12T05:26:39.284Z,59030.74
2019-05-12T05:31:35.215Z,59064.29
2019-05-12T05:36:31.132Z,59055.65
2019-05-12T05:41:27.086Z,59098.68
2019-05-12T05:46:24.073Z,59167.20
2019-05-12T05:51:20.319Z,59180.76
2019-05-12T05:56:18.332Z,59217.02
2019-05-12T06:01:14.081Z,59261.07
2019-05-12T06:06:12.386Z,59281.14
2019-05-12T06:11:08.635Z,59271.68
2019-05-12T06:16:04.824Z,59292.46
2019-05-12T06:21:03.449Z,59351.59
2019-05-12T06:25:59.426Z,59355.37
2019-05-12T06:30:58.243Z,59339.13
2019-05-12T06:35:54.337Z,59358.36
2019-05-12T06:40:50.420Z,59463.01
2019-05-12T06:45:46.341Z,59519.91
2019-05-12T06:50:44.186Z,59487.84
2019-05-12T06:55:40.072Z,59528.20
2019-05-12T07:00:35.990Z,59504.34
2019-05-12T07:05:38.255Z,59538.88
2019-05-12T07:10:43.492Z,59466.58
2019-05-12T07:15:34.845Z,59573.60
2019-05-12T07:20:29.343Z,59533.08
2019-05-12T07:25:31.247Z,59602.34
2019-05-12T07:30:34.283Z,59654.97
2019-05-12T07:35:28.755Z,59649.13
2019-05-12T07:40:30.134Z,59638.66
2019-05-12T07:45:25.340Z,59654.54
2019-05-12T07:50:26.519Z,59793.80
2019-05-12T07:55:19.392Z,59793.35
2019-05-12T08:00:21.226Z,59641.04
2019-05-12T08:05:19.394Z,59589.48
2019-05-12T08:10:17.688Z,59595.16
2019-05-12T08:15:10.668Z,59713.74
2019-05-12T08:20:06.783Z,59643.08
2019-05-12T08:25:05.351Z,59648.87
2019-05-12T08:30:02.989Z,59589.60
2019-05-12T08:35:00.108Z,59757.55
2019-05-12T08:40:03.121Z,59768.25
2019-05-12T08:44:54.835Z,59823.49
2019-05-12T08:49:56.061Z,59878.78
2019-05-12T08:54:49.533Z,59897.54
2019-05-12T08:59:46.046Z,59765.64
2019-05-12T09:04:45.373Z,59692.68
2019-05-12T09:09:45.537Z,59738.95
2019-05-12T09:14:46.237Z,59714.45
2019-05-12T09:19:39.585Z,59622.97
2019-05-12T09:24:35.572Z,59810.19
2019-05-12T09:29:34.153Z,59962.00
2019-05-12T09:34:30.177Z,59931.70
2019-05-12T09:39:42.557Z,59757.46
2019-05-12T09:44:34.608Z,59779.15
2019-05-12T09:49:32.104Z,59944.30
2019-05-12T09:54:35.578Z,59861.21
2019-05-12T09:59:26.214Z,59764.11
2019-05-12T10:04:22.138Z,59778.90
2019-05-12T10:09:19.872Z,59960.23
2019-05-12T10:14:15.897Z,60004.18
2019-05-12T10:19:14.302Z,59882.70
2019-05-12T10:24:09.694Z,59794.69
2019-05-12T10:29:16.302Z,59822.53
2019-05-12T10:34:24.304Z,60030.11
2019-05-12T10:39:29.764Z,60182.60
2019-05-12T10:44:39.404Z,60061.27
2019-05-12T10:49:35.700Z,59928.40
2019-05-12T10:54:34.904Z,59973.18
2019-05-12T10:59:33.390Z,59997.41
2019-05-12T11:04:36.843Z,59945.75
2019-05-12T11:09:34.336Z,60007.40
2019-05-12T11:14:30.570Z,60037.93
2019-05-12T11:19:26.793Z,59991.00
2019-05-12T11:24:22.724Z,59978.64
2019-05-12T11:29:18.639Z,60050.79
2019-05-12T11:34:18.873Z,60192.54
2019-05-12T11:39:15.773Z,60089.81
2019-05-12T11:44:13.177Z,60265.80
2019-05-12T11:49:09.720Z,60137.64
2019-05-12T11:54:08.862Z,60175.98
2019-05-12T11:59:03.588Z,60279.39
2019-05-12T12:04:03.729Z,60340.79
2019-05-12T12:09:00.699Z,60348.09
2019-05-12T12:14:00.269Z,60261.18
2019-05-12T12:19:02.371Z,60113.37
2019-05-12T12:23:53.438Z,60122.40
2019-05-12T12:28:49.769Z,60161.20
2019-05-12T12:33:47.101Z,60057.81
2019-05-12T12:38:44.039Z,59999.91
2019-05-12T12:43:40.178Z,59992.77
2019-05-12T12:48:36.634Z,60007.98
2019-05-12T12:53:34.333Z,60007.72
2019-05-12T12:58:34.283Z,59960.11
2019-05-12T13:03:30.008Z,60209.79
2019-05-12T13:08:26.186Z,60262.36
2019-05-12T13:13:24.310Z,60330.41
2019-05-12T13:18:24.725Z,60254.16
2019-05-12T13:23:18.061Z,60213.12
2019-05-12T13:28:19.183Z,60227.69
2019-05-12T13:33:20.920Z,60189.21
2019-05-12T13:38:16.944Z,60098.74
2019-05-12T13:43:15.490Z,60034.05
2019-05-12T13:48:15.781Z,60002.29
2019-05-12T13:53:10.349Z,59984.73
2019-05-12T13:58:06.448Z,60087.03
2019-05-12T14:03:07.991Z,60081.47
2019-05-12T14:08:00.292Z,60081.47
2019-05-12T14:12:56.313Z,60052.21
2019-05-12T14:17:54.192Z,60148.00
2019-05-12T14:22:50.064Z,60096.36
2019-05-12T14:27:46.061Z,60081.73
2019-05-12T14:32:44.022Z,60056.75
2019-05-12T14:37:45.201Z,60016.57
2019-05-12T14:42:39.886Z,60025.13
2019-05-12T14:47:38.941Z,60007.99
2019-05-12T14:52:34.261Z,60033.91
2019-05-12T14:57:37.470Z,59982.20
2019-05-12T15:02:29.470Z,60019.86
2019-05-12T15:07:25.731Z,59976.86
2019-05-12T15:12:24.309Z,60078.16
2019-05-12T15:17:24.444Z,60109.55
2019-05-12T15:22:20.365Z,60126.47
2019-05-12T15:27:16.431Z,60182.41
2019-05-12T15:32:12.408Z,60091.96
2019-05-12T15:37:11.577Z,60138.71
2019-05-12T15:42:07.629Z,60148.60
2019-05-12T15:47:03.983Z,60157.77
2019-05-12T15:52:03.578Z,60084.58
2019-05-12T15:57:00.565Z,60054.13
2019-05-12T16:02:08.704Z,60026.44
2019-05-12T16:06:57.804Z,60106.46
2019-05-12T16:11:52.853Z,60102.66
2019-05-12T16:16:48.788Z,60075.77
2019-05-12T16:21:45.724Z,60016.69
2019-05-12T16:26:45.283Z,60034.64
2019-05-12T16:31:48.228Z,60048.79
2019-05-12T16:36:41.041Z,59998.26
2019-05-12T16:41:38.319Z,60100.28
2019-05-12T16:46:34.433Z,60298.61
2019-05-12T16:51:33.155Z,60373.17
2019-05-12T16:56:30.884Z,60447.23
2019-05-12T17:01:29.567Z,60678.30
2019-05-12T17:06:28.802Z,60648.59
2019-05-12T17:11:29.890Z,60556.37
2019-05-12T17:16:22.039Z,60390.61
2019-05-12T17:21:20.649Z,60302.80
2019-05-12T17:26:16.759Z,60218.17
2019-05-12T17:31:13.600Z,60257.97
2019-05-12T17:36:12.462Z,60376.29
2019-05-12T17:41:07.795Z,60314.34
2019-05-12T17:46:04.609Z,60055.34
2019-05-12T17:51:03.152Z,60060.79
2019-05-12T17:55:58.723Z,60069.84
2019-05-12T18:00:54.764Z,60089.58
2019-05-12T18:05:50.697Z,60120.27
2019-05-12T18:10:48.034Z,60240.32
2019-05-12T18:15:44.519Z,60150.26
2019-05-12T18:20:42.335Z,60140.87
2019-05-12T18:25:38.432Z,60126.94
2019-05-12T18:30:34.488Z,60167.29
2019-05-12T18:35:30.511Z,60176.48
2019-05-12T18:40:28.190Z,59979.24
2019-05-12T18:45:25.331Z,59931.14
2019-05-12T18:50:28.570Z,59949.43
2019-05-12T18:55:19.208Z,59937.19
2019-05-12T19:00:17.808Z,59935.29
2019-05-12T19:05:21.752Z,59795.53
2019-05-12T19:10:14.124Z,59822.30
2019-05-12T19:15:19.523Z,59793.15
2019-05-12T19:20:09.840Z,59719.92
2019-05-12T19:25:06.264Z,59723.00
2019-05-12T19:30:04.374Z,59721.35
2019-05-12T19:35:00.350Z,59715.89
2019-05-12T19:39:57.174Z,59706.43
2019-05-12T19:44:56.567Z,59629.59
2019-05-12T19:49:53.580Z,59648.77
2019-05-12T19:54:48.935Z,59654.57
2019-05-12T19:59:50.824Z,59616.00
2019-05-12T20:04:51.775Z,59642.50
2019-05-12T20:09:46.151Z,59600.74
2019-05-12T20:14:43.468Z,59586.65
2019-05-12T20:19:39.487Z,59592.32
2019-05-12T20:24:35.484Z,59581.57
2019-05-12T20:29:33.567Z,59520.70
2019-05-12T20:34:29.299Z,59510.06
2019-05-12T20:39:33.465Z,59506.05
2019-05-12T20:44:29.493Z,59483.37
2019-05-12T20:49:25.426Z,59489.28
2019-05-12T20:54:23.774Z,59473.45
2019-05-12T20:59:21.922Z,59450.30
2019-05-12T21:04:22.062Z,59418.80
2019-05-12T21:09:17.610Z,59440.50
2019-05-12T21:14:14.694Z,59417.62
2019-05-12T21:19:13.384Z,59397.45
2019-05-12T21:24:08.632Z,59373.13
2019-05-12T21:29:04.850Z,59382.92
2019-05-12T21:34:03.735Z,59387.28
2019-05-12T21:38:59.549Z,59363.59
2019-05-12T21:44:00.060Z,59374.20
2019-05-12T21:48:56.187Z,59333.53
2019-05-12T21:53:56.009Z,59344.49
2019-05-12T21:58:53.809Z,59336.58
2019-05-12T22:03:58.153Z,59324.54
2019-05-12T22:08:46.367Z,59298.62
2019-05-12T22:13:46.863Z,59295.56
2019-05-12T22:18:40.452Z,59299.09
2019-05-12T22:23:36.404Z,59270.58
2019-05-12T22:28:34.212Z,59251.02
2019-05-12T22:33:30.448Z,59197.81
2019-05-12T22:38:26.371Z,59218.29
2019-05-12T22:43:23.666Z,59170.87
2019-05-12T22:48:19.935Z,59167.79
2019-05-12T22:53:19.391Z,59159.92
2019-05-12T22:58:20.692Z,59171.93
2019-05-12T23:03:14.678Z,59157.10
2019-05-12T23:08:09.362Z,59146.04
2019-05-12T23:13:05.315Z,59165.57
2019-05-12T23:18:01.302Z,59173.22
2019-05-12T23:22:57.232Z,59167.45
2019-05-12T23:27:54.278Z,59168.86
2019-05-12T23:32:51.637Z,59167.21
2019-05-12T23:37:47.845Z,59155.92
2019-05-12T23:42:44.567Z,59123.45
2019-05-12T23:47:40.585Z,59075.48
2019-05-12T23:52:36.513Z,59085.85
2019-05-12T23:57:33.833Z,59125.46
